Time;durP1;ratioP1;P1;durP2;ratioP2;P2;SDS_P1;SDS_P2;PMS_P1;PMS_P2;Temp;Humidity;BMP_temperature;BMP_pressure;BME280_temperature;BME280_humidity;BME280_pressure;Samples;Min_cycle;Max_cycle;Signal;HPM_P1;HPM_P2
2021/07/19 05:01:19;;;;;;;17.58;13.80;;;;;;;;;;5698119;23;20108;-76
2021/07/19 05:03:45;;;;;;;15.02;13.38;;;;;;;;;;4984800;28;20026;-76
2021/07/19 05:06:10;;;;;;;16.17;13.45;;;;;;;;;;4982976;28;20030;-76
2021/07/19 05:08:35;;;;;;;16.35;12.40;;;;;;;;;;4966353;28;20440;-73
2021/07/19 05:11:01;;;;;;;15.80;13.10;;;;;;;;;;4984283;28;20026;-76
2021/07/19 05:13:27;;;;;;;13.82;12.73;;;;;;;;;;4985620;28;20261;-76
2021/07/19 05:15:52;;;;;;;14.50;12.35;;;;;;;;;;4986322;28;20026;-76
2021/07/19 05:18:18;;;;;;;18.10;13.40;;;;;;;;;;4987033;28;20040;-76
2021/07/19 05:20:44;;;;;;;16.10;12.48;;;;;;;;;;4986482;28;20265;-76
2021/07/19 05:23:09;;;;;;;14.45;12.07;;;;;;;;;;4987840;28;20033;-77
2021/07/19 05:25:35;;;;;;;17.45;11.70;;;;;;;;;;4984299;28;20014;-76
2021/07/19 05:28:18;;;;;;;13.93;12.35;;;;;;;;;;4982054;28;20097;-77
2021/07/19 05:30:44;;;;;;;12.68;11.52;;;;;;;;;;4981989;28;20029;-77
2021/07/19 05:33:10;;;;;;;13.48;12.23;;;;;;;;;;4971294;28;20034;-76
2021/07/19 05:35:35;;;;;;;17.85;14.02;;;;;;;;;;4967387;28;20031;-76
2021/07/19 05:38:00;;;;;;;12.52;10.18;;;;;;;;;;4967007;28;20069;-77
2021/07/19 05:40:26;;;;;;;12.07;10.87;;;;;;;;;;4967510;28;20034;-76
2021/07/19 05:42:51;;;;;;;11.15;10.15;;;;;;;;;;4955648;28;20267;-75
2021/07/19 05:45:16;;;;;;;10.70;9.53;;;;;;;;;;4947035;29;20034;-75
2021/07/19 05:47:42;;;;;;;11.02;10.10;;;;;;;;;;4961973;28;20456;-74
2021/07/19 05:50:07;;;;;;;13.15;10.43;;;;;;;;;;4966372;28;20530;-76
2021/07/19 05:52:33;;;;;;;10.63;9.05;;;;;;;;;;4961775;28;20066;-77
2021/07/19 05:54:58;;;;;;;15.30;9.75;;;;;;;;;;4956862;28;20109;-77
2021/07/19 05:57:24;;;;;;;13.05;10.07;;;;;;;;;;4967733;28;20089;-78
2021/07/19 05:59:49;;;;;;;9.23;8.52;;;;;;;;;;4964493;28;20416;-77
2021/07/19 06:02:17;;;;;;;13.50;10.03;;;;;;;;;;4966333;28;20071;-76
2021/07/19 06:04:42;;;;;;;11.57;9.63;;;;;;;;;;4956709;28;20056;-76
2021/07/19 06:07:08;;;;;;;10.50;9.40;;;;;;;;;;4948932;29;20267;-76
2021/07/19 06:09:33;;;;;;;10.00;8.73;;;;;;;;;;4946103;29;20117;-76
2021/07/19 06:11:58;;;;;;;12.73;9.93;;;;;;;;;;4955404;28;20031;-76
2021/07/19 06:14:23;;;;;;;13.40;10.10;;;;;;;;;;4980788;28;20481;-76
2021/07/19 06:16:50;;;;;;;10.80;9.77;;;;;;;;;;4965834;28;20170;-76
2021/07/19 06:19:16;;;;;;;10.88;9.75;;;;;;;;;;4967327;28;20022;-76
2021/07/19 06:21:41;;;;;;;11.82;9.27;;;;;;;;;;4962456;28;20033;-76
2021/07/19 06:24:06;;;;;;;12.97;8.50;;;;;;;;;;4964234;28;20019;-76
2021/07/19 06:26:32;;;;;;;14.90;8.40;;;;;;;;;;4962482;28;20392;-76
2021/07/19 06:28:57;;;;;;;12.80;9.07;;;;;;;;;;4967385;28;20274;-75
2021/07/19 06:31:22;;;;;;;9.77;8.77;;;;;;;;;;4965393;28;20034;-78
2021/07/19 06:33:47;;;;;;;8.43;7.63;;;;;;;;;;4966394;28;20019;-76
2021/07/19 06:36:13;;;;;;;12.63;7.97;;;;;;;;;;4966978;28;20271;-79
2021/07/19 06:38:38;;;;;;;13.80;8.40;;;;;;;;;;4964329;28;20297;-77
2021/07/19 06:41:03;;;;;;;8.73;8.10;;;;;;;;;;4967006;28;20270;-78
2021/07/19 06:43:29;;;;;;;9.75;8.75;;;;;;;;;;4932114;28;20054;-78
2021/07/19 06:45:54;;;;;;;8.63;7.70;;;;;;;;;;4967176;28;20023;-78
2021/07/19 06:48:19;;;;;;;9.87;8.97;;;;;;;;;;4965690;28;20503;-77
2021/07/19 06:50:45;;;;;;;10.43;9.48;;;;;;;;;;4970148;28;20266;-78
2021/07/19 06:53:10;;;;;;;9.77;8.77;;;;;;;;;;4967973;28;20030;-75
2021/07/19 06:55:35;;;;;;;10.02;9.02;;;;;;;;;;4967218;28;20319;-74
2021/07/19 06:58:00;;;;;;;10.23;8.23;;;;;;;;;;4970341;28;20022;-74
2021/07/19 07:00:26;;;;;;;9.07;8.27;;;;;;;;;;4959227;28;20046;-75
2021/07/19 07:02:51;;;;;;;8.93;7.90;;;;;;;;;;4966753;28;20046;-76
2021/07/19 07:05:16;;;;;;;11.30;8.40;;;;;;;;;;4964340;28;20348;-77
2021/07/19 07:07:43;;;;;;;9.63;7.27;;;;;;;;;;4967157;28;20495;-77
2021/07/19 07:10:08;;;;;;;8.32;7.63;;;;;;;;;;4962512;28;20312;-77
2021/07/19 07:12:33;;;;;;;8.63;7.70;;;;;;;;;;4967931;28;20066;-74
2021/07/19 07:14:59;;;;;;;8.90;8.13;;;;;;;;;;4959031;28;20027;-75
2021/07/19 07:17:24;;;;;;;9.13;8.40;;;;;;;;;;4966508;28;20309;-74
2021/07/19 07:19:51;;;;;;;9.77;8.67;;;;;;;;;;4966813;28;20254;-74
2021/07/19 07:22:16;;;;;;;9.48;8.52;;;;;;;;;;4966546;28;20053;-73
2021/07/19 07:24:41;;;;;;;10.02;9.20;;;;;;;;;;4967409;28;20058;-74
2021/07/19 07:27:08;;;;;;;10.77;9.00;;;;;;;;;;4964269;28;20035;-73
2021/07/19 07:29:33;;;;;;;11.93;8.65;;;;;;;;;;4967791;28;20344;-74
2021/07/19 07:31:58;;;;;;;9.75;8.80;;;;;;;;;;4964612;28;20050;-74
2021/07/19 07:34:24;;;;;;;9.73;8.70;;;;;;;;;;4966817;28;20444;-74
2021/07/19 07:36:49;;;;;;;11.07;7.77;;;;;;;;;;4968099;28;20278;-75
2021/07/19 07:39:14;;;;;;;9.70;7.40;;;;;;;;;;4966678;28;20742;-74
2021/07/19 07:41:39;;;;;;;9.77;8.40;;;;;;;;;;4967142;28;20317;-75
2021/07/19 07:44:05;;;;;;;8.57;7.87;;;;;;;;;;4963054;28;20030;-73
2021/07/19 07:46:30;;;;;;;7.28;5.90;;;;;;;;;;4966069;28;20274;-74
2021/07/19 07:48:55;;;;;;;6.47;5.63;;;;;;;;;;4964036;28;20055;-75
2021/07/19 07:51:21;;;;;;;8.65;6.70;;;;;;;;;;4948091;28;20295;-74
2021/07/19 07:53:46;;;;;;;9.38;6.35;;;;;;;;;;4947060;28;20030;-76
2021/07/19 07:56:11;;;;;;;6.75;6.10;;;;;;;;;;4947809;29;20019;-73
2021/07/19 07:58:38;;;;;;;7.33;6.40;;;;;;;;;;4945935;29;20055;-72
2021/07/19 08:01:03;;;;;;;11.18;5.85;;;;;;;;;;4946182;28;20279;-73
2021/07/19 08:03:28;;;;;;;7.03;6.20;;;;;;;;;;4947438;29;20026;-74
2021/07/19 08:05:53;;;;;;;8.30;6.47;;;;;;;;;;4946465;29;20023;-74
2021/07/19 08:08:19;;;;;;;5.40;5.00;;;;;;;;;;4949930;28;20031;-73
2021/07/19 08:10:44;;;;;;;11.10;5.60;;;;;;;;;;4950012;28;20344;-73
2021/07/19 08:13:09;;;;;;;14.20;6.20;;;;;;;;;;4966700;28;20489;-75
2021/07/19 08:15:35;;;;;;;7.13;5.97;;;;;;;;;;4966904;28;20015;-73
2021/07/19 08:18:00;;;;;;;6.38;5.78;;;;;;;;;;4966470;28;20026;-75
2021/07/19 08:20:25;;;;;;;7.28;6.32;;;;;;;;;;4966429;28;20098;-74
2021/07/19 08:22:50;;;;;;;8.33;6.13;;;;;;;;;;4965441;28;20034;-75
2021/07/19 08:25:16;;;;;;;6.33;5.73;;;;;;;;;;4963475;28;20375;-74
2021/07/19 08:27:41;;;;;;;10.77;6.63;;;;;;;;;;4944779;29;20286;-74
2021/07/19 08:30:07;;;;;;;12.02;6.40;;;;;;;;;;4948121;29;20096;-74
2021/07/19 08:32:32;;;;;;;7.28;6.38;;;;;;;;;;4945619;29;20039;-74
2021/07/19 08:34:58;;;;;;;6.70;6.20;;;;;;;;;;4948949;28;20212;-75
2021/07/19 08:37:23;;;;;;;9.97;6.40;;;;;;;;;;4951792;28;20365;-75
2021/07/19 08:39:48;;;;;;;7.60;6.80;;;;;;;;;;4945992;29;20274;-75
2021/07/19 08:42:14;;;;;;;7.55;6.80;;;;;;;;;;4948345;29;20019;-74
2021/07/19 08:44:39;;;;;;;10.77;6.30;;;;;;;;;;4945227;29;20023;-75
2021/07/19 08:47:08;;;;;;;8.90;7.85;;;;;;;;;;4948444;29;20432;-75
2021/07/19 08:49:33;;;;;;;10.43;8.32;;;;;;;;;;4946237;28;20030;-74
2021/07/19 08:51:59;;;;;;;10.05;7.50;;;;;;;;;;4956739;28;20047;-73
2021/07/19 08:54:26;;;;;;;14.67;8.27;;;;;;;;;;4978684;28;20055;-72
2021/07/19 08:56:52;;;;;;;9.82;8.57;;;;;;;;;;4964688;28;20109;-72
2021/07/19 08:59:19;;;;;;;7.97;7.27;;;;;;;;;;4965787;28;20476;-75
2021/07/19 09:01:45;;;;;;;9.18;7.40;;;;;;;;;;4964249;28;20651;-72
2021/07/19 09:04:12;;;;;;;10.18;7.32;;;;;;;;;;4966551;28;20030;-72
2021/07/19 09:06:39;;;;;;;8.10;7.40;;;;;;;;;;4964208;28;20030;-72
2021/07/19 09:09:04;;;;;;;10.90;8.50;;;;;;;;;;4965433;28;20031;-75
2021/07/19 09:11:29;;;;;;;8.10;7.30;;;;;;;;;;4965783;28;20404;-73
2021/07/19 09:13:58;;;;;;;10.93;8.13;;;;;;;;;;4962901;28;20329;-75
2021/07/19 09:16:23;;;;;;;11.02;8.25;;;;;;;;;;4966949;28;20333;-73
2021/07/19 09:19:05;;;;;;;10.10;8.50;;;;;;;;;;4964265;28;20039;-74
2021/07/19 09:21:31;;;;;;;15.52;9.93;;;;;;;;;;4966981;28;20590;-75
2021/07/19 09:24:23;;;;;;;8.95;8.02;;;;;;;;;;4963832;28;20146;-75
2021/07/19 09:26:49;;;;;;;13.55;9.02;;;;;;;;;;4954358;28;20555;-75
2021/07/19 09:29:16;;;;;;;9.77;8.30;;;;;;;;;;4966356;28;20027;-75
2021/07/19 09:31:46;;;;;;;11.05;9.02;;;;;;;;;;4960852;28;20034;-75
2021/07/19 09:34:12;;;;;;;10.80;8.45;;;;;;;;;;4964620;28;20109;-74
2021/07/19 09:36:37;;;;;;;10.93;8.65;;;;;;;;;;4963627;28;20031;-74
2021/07/19 09:39:04;;;;;;;16.77;10.60;;;;;;;;;;4961074;28;20091;-75
2021/07/19 09:41:29;;;;;;;11.77;9.48;;;;;;;;;;4970632;28;20085;-75
2021/07/19 09:43:54;;;;;;;9.10;8.33;;;;;;;;;;4964088;28;20031;-74
2021/07/19 09:46:19;;;;;;;9.37;7.50;;;;;;;;;;4964322;28;20266;-76
2021/07/19 09:48:45;;;;;;;15.83;7.73;;;;;;;;;;4958842;28;20282;-76
2021/07/19 09:51:10;;;;;;;8.43;7.73;;;;;;;;;;4961236;28;20281;-75
2021/07/19 09:53:37;;;;;;;11.33;8.90;;;;;;;;;;4959023;28;20031;-76
2021/07/19 09:56:21;;;;;;;10.75;8.70;;;;;;;;;;4963319;28;20270;-76
2021/07/19 09:58:50;;;;;;;15.43;9.98;;;;;;;;;;4961317;28;20109;-77
2021/07/19 10:01:28;;;;;;;12.30;8.90;;;;;;;;;;4961173;28;20043;-75
2021/07/19 10:04:06;;;;;;;9.25;8.35;;;;;;;;;;4959504;28;20026;-74
2021/07/19 10:06:31;;;;;;;10.82;9.75;;;;;;;;;;4963259;28;20019;-75
2021/07/19 10:08:57;;;;;;;10.70;9.63;;;;;;;;;;4964009;28;20033;-77
2021/07/19 10:11:22;;;;;;;12.82;9.95;;;;;;;;;;4963557;28;20030;-75
2021/07/19 10:13:52;;;;;;;11.07;9.03;;;;;;;;;;4964561;28;20043;-75
2021/07/19 10:16:17;;;;;;;10.05;8.98;;;;;;;;;;4957882;28;20420;-75
2021/07/19 10:18:44;;;;;;;11.45;9.65;;;;;;;;;;4962726;28;20106;-75
2021/07/19 10:21:09;;;;;;;10.43;9.32;;;;;;;;;;4962914;28;20054;-75
2021/07/19 10:23:35;;;;;;;10.95;8.98;;;;;;;;;;4963313;28;20031;-73
2021/07/19 10:26:00;;;;;;;11.90;10.80;;;;;;;;;;4965586;28;20023;-75
2021/07/19 10:28:25;;;;;;;11.37;10.27;;;;;;;;;;4967028;28;20023;-76
2021/07/19 10:30:53;;;;;;;19.03;10.47;;;;;;;;;;4966920;28;20723;-76
2021/07/19 10:33:18;;;;;;;14.07;9.93;;;;;;;;;;4966902;28;20297;-76
2021/07/19 10:35:43;;;;;;;13.73;9.00;;;;;;;;;;4954573;28;20527;-74
2021/07/19 10:38:18;;;;;;;10.02;9.05;;;;;;;;;;4973820;28;20265;-75
2021/07/19 10:40:43;;;;;;;10.52;9.23;;;;;;;;;;4965730;28;20488;-76
2021/07/19 10:43:10;;;;;;;15.57;9.57;;;;;;;;;;4966782;28;20081;-76
2021/07/19 10:45:42;;;;;;;10.63;9.27;;;;;;;;;;4966498;28;20105;-70
2021/07/19 10:48:07;;;;;;;14.15;10.63;;;;;;;;;;4965293;28;20026;-73
2021/07/19 10:50:36;;;;;;;12.00;9.45;;;;;;;;;;4966731;28;20543;-75
2021/07/19 10:53:02;;;;;;;11.18;9.85;;;;;;;;;;4967213;28;20035;-73
2021/07/19 10:55:31;;;;;;;10.95;9.70;;;;;;;;;;4966252;28;20061;-74
2021/07/19 10:57:56;;;;;;;;;;;;;;;;;;4965675;28;20034;-74
2021/07/19 11:00:23;;;;;;;10.07;9.17;;;;;;;;;;4968634;28;19906;-87
2021/07/19 11:02:48;;;;;;;17.88;9.52;;;;;;;;;;4966045;28;20053;-85
2021/07/19 11:05:15;;;;;;;10.43;9.33;;;;;;;;;;4968408;28;20015;-85
2021/07/19 11:07:40;;;;;;;10.60;9.57;;;;;;;;;;4959117;28;20288;-91
2021/07/19 11:10:15;;;;;;;10.70;9.60;;;;;;;;;;4955202;28;20014;-88
2021/07/19 11:12:50;;;;;;;10.75;9.15;;;;;;;;;;4965484;28;20034;-90
2021/07/19 11:15:15;;;;;;;11.10;9.35;;;;;;;;;;4964930;28;20117;-84
2021/07/19 11:17:40;;;;;;;9.13;8.32;;;;;;;;;;4967601;28;20493;-84
2021/07/19 11:20:14;;;;;;;10.00;9.00;;;;;;;;;;4965558;28;20031;-88
2021/07/19 11:22:40;;;;;;;9.00;8.07;;;;;;;;;;4966060;28;20286;-85
2021/07/19 11:25:10;;;;;;;12.38;8.38;;;;;;;;;;4964944;28;20014;-89
2021/07/19 11:27:36;;;;;;;8.60;7.78;;;;;;;;;;4967800;28;20055;-85
2021/07/19 11:30:22;;;;;;;11.32;8.45;;;;;;;;;;4966821;28;20432;-84
2021/07/19 11:32:48;;;;;;;9.07;8.23;;;;;;;;;;4966781;28;20027;-88
2021/07/19 11:35:14;;;;;;;8.60;7.37;;;;;;;;;;4948399;28;20019;-85
2021/07/19 11:37:40;;;;;;;10.55;8.15;;;;;;;;;;4947924;28;20361;-90
2021/07/19 11:40:05;;;;;;;11.50;7.32;;;;;;;;;;4965532;28;20475;-85
2021/07/19 11:42:31;;;;;;;9.27;8.48;;;;;;;;;;4964761;28;20089;-88
2021/07/19 11:45:01;;;;;;;14.50;8.60;;;;;;;;;;4965185;28;20442;-87
2021/07/19 11:47:26;;;;;;;9.68;8.32;;;;;;;;;;4965269;28;20034;-85
2021/07/19 11:49:58;;;;;;;9.57;8.70;;;;;;;;;;4965309;28;20015;-90
2021/07/19 11:52:24;;;;;;;9.05;8.05;;;;;;;;;;4966435;28;20062;-88
2021/07/19 11:54:49;;;;;;;9.97;7.70;;;;;;;;;;4964567;28;20019;-88
2021/07/19 11:57:14;;;;;;;15.90;8.25;;;;;;;;;;4966267;28;20625;-86
2021/07/19 11:59:41;;;;;;;11.65;8.18;;;;;;;;;;4946623;28;20034;-88
2021/07/19 12:02:06;;;;;;;9.95;8.48;;;;;;;;;;4962150;28;20495;-86
2021/07/19 12:04:36;;;;;;;10.35;8.25;;;;;;;;;;4965656;28;20469;-88
2021/07/19 12:07:02;;;;;;;10.18;8.10;;;;;;;;;;4964688;28;20149;-88
2021/07/19 12:09:27;;;;;;;10.75;8.10;;;;;;;;;;4965050;28;20126;-86
2021/07/19 12:11:52;;;;;;;8.90;8.03;;;;;;;;;;4959399;28;20030;-87
2021/07/19 12:14:18;;;;;;;12.07;8.90;;;;;;;;;;4964230;28;20022;-89
2021/07/19 12:16:43;;;;;;;9.23;8.32;;;;;;;;;;4939331;28;20019;-84
2021/07/19 12:19:12;;;;;;;12.77;8.30;;;;;;;;;;4963901;28;20338;-86
2021/07/19 12:21:37;;;;;;;;;;;;;;;;;;4938294;28;20745;-90
2021/07/19 12:24:03;;;;;;;13.40;7.90;;;;;;;;;;4963888;28;19910;-86
2021/07/19 12:26:31;;;;;;;16.40;8.00;;;;;;;;;;4964111;28;20404;-92
2021/07/19 12:28:57;;;;;;;13.52;8.30;;;;;;;;;;4962722;28;20085;-84
2021/07/19 12:31:25;;;;;;;15.32;8.48;;;;;;;;;;4964793;28;20035;-89
2021/07/19 12:33:51;;;;;;;12.45;8.70;;;;;;;;;;4964049;28;20038;-85
2021/07/19 12:36:19;;;;;;;10.70;7.90;;;;;;;;;;4961776;28;20035;-80
2021/07/19 12:38:45;;;;;;;12.05;7.85;;;;;;;;;;4965497;28;20117;-86
2021/07/19 12:41:11;;;;;;;9.50;8.47;;;;;;;;;;4965434;28;20121;-86
2021/07/19 12:43:39;;;;;;;8.75;8.00;;;;;;;;;;4965339;28;20082;-85
2021/07/19 12:46:04;;;;;;;8.07;7.20;;;;;;;;;;4961923;28;20019;-86
2021/07/19 12:48:30;;;;;;;10.65;7.20;;;;;;;;;;4961755;28;20050;-84
2021/07/19 12:50:59;;;;;;;9.05;7.32;;;;;;;;;;4961387;28;20011;-83
2021/07/19 12:53:30;;;;;;;14.18;7.30;;;;;;;;;;4948300;28;20129;-85
2021/07/19 12:56:05;;;;;;;9.90;7.05;;;;;;;;;;4964111;28;20749;-83
2021/07/19 12:58:30;;;;;;;10.50;7.47;;;;;;;;;;4948647;28;20085;-79
2021/07/19 13:00:55;;;;;;;8.13;6.93;;;;;;;;;;4960520;28;20137;-84
2021/07/19 13:03:26;;;;;;;14.87;7.87;;;;;;;;;;4965133;28;20460;-84
2021/07/19 13:05:52;;;;;;;8.63;7.35;;;;;;;;;;4964998;28;20266;-89
2021/07/19 13:08:27;;;;;;;9.37;7.27;;;;;;;;;;4966848;28;20026;-93
2021/07/19 13:10:52;;;;;;;10.55;7.55;;;;;;;;;;4934596;28;20325;-84
2021/07/19 13:13:21;;;;;;;9.50;7.77;;;;;;;;;;4964226;28;20034;-81
2021/07/19 13:15:46;;;;;;;;;;;;;;;;;;4964929;28;20496;-85
2021/07/19 13:18:15;;;;;;;9.03;7.77;;;;;;;;;;4964064;28;19906;-81
2021/07/19 13:20:40;;;;;;;13.98;8.60;;;;;;;;;;4964672;28;20739;-83
2021/07/19 13:23:19;;;;;;;11.02;8.05;;;;;;;;;;4964689;28;20508;-85
2021/07/19 13:25:44;;;;;;;11.80;8.43;;;;;;;;;;4946937;28;20030;-87
2021/07/19 13:28:10;;;;;;;16.85;8.52;;;;;;;;;;4964387;28;20026;-93
2021/07/19 13:30:35;;;;;;;8.98;7.78;;;;;;;;;;4963418;28;20015;-86
2021/07/19 13:33:00;;;;;;;9.23;8.38;;;;;;;;;;4964637;28;20069;-85
2021/07/19 13:35:39;;;;;;;9.85;7.70;;;;;;;;;;4962940;28;20019;-82
2021/07/19 13:38:04;;;;;;;13.77;8.43;;;;;;;;;;4963716;28;20102;-84
2021/07/19 13:40:29;;;;;;;11.80;8.30;;;;;;;;;;4947472;28;20122;-84
2021/07/19 13:43:00;;;;;;;11.03;9.97;;;;;;;;;;4962529;28;20023;-82
2021/07/19 13:45:25;;;;;;;26.98;9.55;;;;;;;;;;4964150;28;20262;-81
2021/07/19 13:47:51;;;;;;;11.13;8.93;;;;;;;;;;4962530;28;20085;-83
2021/07/19 13:50:17;;;;;;;11.63;9.93;;;;;;;;;;4963713;28;20422;-82
2021/07/19 13:52:42;;;;;;;14.23;10.33;;;;;;;;;;4964166;28;20505;-80
2021/07/19 13:55:08;;;;;;;11.40;10.13;;;;;;;;;;4963618;28;20281;-91
2021/07/19 13:57:33;;;;;;;11.40;10.30;;;;;;;;;;4965616;28;20794;-86
2021/07/19 13:59:59;;;;;;;14.38;10.80;;;;;;;;;;4963885;28;20025;-86
2021/07/19 14:02:24;;;;;;;13.07;10.20;;;;;;;;;;4957429;28;20594;-83
2021/07/19 14:04:49;;;;;;;15.63;11.40;;;;;;;;;;4963750;28;20024;-86
2021/07/19 14:07:15;;;;;;;12.93;11.30;;;;;;;;;;4965568;28;20799;-79
2021/07/19 14:09:40;;;;;;;20.38;11.05;;;;;;;;;;4968855;28;20039;-91
2021/07/19 14:12:06;;;;;;;12.43;10.60;;;;;;;;;;4966256;28;20660;-83
2021/07/19 14:14:31;;;;;;;15.40;11.77;;;;;;;;;;4939639;28;20290;-87
2021/07/19 14:16:56;;;;;;;11.60;10.48;;;;;;;;;;4968638;28;20055;-88
2021/07/19 14:19:23;;;;;;;14.03;11.73;;;;;;;;;;4951730;28;20105;-86
2021/07/19 14:21:48;;;;;;;13.32;11.77;;;;;;;;;;4967037;28;20273;-90
2021/07/19 14:24:14;;;;;;;12.60;11.40;;;;;;;;;;4969174;28;20404;-82
2021/07/19 14:26:41;;;;;;;13.52;12.02;;;;;;;;;;4968413;28;20270;-89
2021/07/19 14:29:06;;;;;;;12.90;11.15;;;;;;;;;;4968286;28;20090;-90
2021/07/19 14:31:32;;;;;;;12.48;11.02;;;;;;;;;;4950762;28;20118;-91
2021/07/19 14:33:57;;;;;;;17.40;12.45;;;;;;;;;;4953330;28;20150;-87
2021/07/19 14:36:23;;;;;;;15.13;12.80;;;;;;;;;;4968032;28;20027;-85
2021/07/19 14:38:48;;;;;;;15.40;12.53;;;;;;;;;;4968204;28;20270;-91
2021/07/19 14:41:13;;;;;;;13.20;12.02;;;;;;;;;;4969246;28;20306;-90
2021/07/19 14:43:39;;;;;;;25.45;14.07;;;;;;;;;;4966645;28;20026;-87
2021/07/19 14:46:11;;;;;;;15.60;12.77;;;;;;;;;;4967750;28;20684;-82
2021/07/19 14:48:36;;;;;;;12.93;11.88;;;;;;;;;;4966922;28;20038;-92
2021/07/19 14:51:02;;;;;;;17.15;12.30;;;;;;;;;;4967319;28;20019;-90
2021/07/19 14:53:28;;;;;;;18.05;12.65;;;;;;;;;;4966571;28;20019;-82
2021/07/19 14:55:54;;;;;;;15.52;13.02;;;;;;;;;;4968851;28;20493;-93
2021/07/19 14:58:19;;;;;;;14.10;11.88;;;;;;;;;;4950421;28;20023;-92
2021/07/19 15:00:44;;;;;;;13.87;12.50;;;;;;;;;;4967712;28;20030;-91
2021/07/19 15:03:10;;;;;;;16.33;11.65;;;;;;;;;;4971589;28;20510;-90
2021/07/19 15:05:35;;;;;;;12.77;11.68;;;;;;;;;;4966836;28;20633;-86
2021/07/19 15:08:01;;;;;;;18.65;12.23;;;;;;;;;;4952789;28;20038;-81
2021/07/19 15:10:26;;;;;;;15.67;12.50;;;;;;;;;;4965276;28;20027;-89
2021/07/19 15:12:51;;;;;;;13.65;12.27;;;;;;;;;;4964921;28;20302;-93
2021/07/19 15:15:16;;;;;;;17.27;12.80;;;;;;;;;;4977522;28;20036;-89
2021/07/19 15:17:42;;;;;;;15.07;13.57;;;;;;;;;;4987497;28;20313;-89
2021/07/19 15:20:07;;;;;;;13.37;12.00;;;;;;;;;;4989608;28;20292;-86
2021/07/19 15:22:33;;;;;;;15.18;9.10;;;;;;;;;;4970731;28;20338;-80
2021/07/19 15:24:58;;;;;;;19.65;7.28;;;;;;;;;;4946385;28;20023;-82
2021/07/19 15:27:23;;;;;;;20.23;9.07;;;;;;;;;;4956638;28;20027;-86
2021/07/19 15:29:49;;;;;;;14.70;7.33;;;;;;;;;;4961264;28;20118;-80
2021/07/19 15:32:16;;;;;;;8.68;7.20;;;;;;;;;;4967724;28;20305;-83
2021/07/19 15:34:41;;;;;;;11.13;7.55;;;;;;;;;;4965978;28;20427;-87
2021/07/19 15:37:07;;;;;;;7.80;6.68;;;;;;;;;;4966196;28;20079;-84
2021/07/19 15:39:32;;;;;;;12.63;8.50;;;;;;;;;;4944543;28;20505;-79
2021/07/19 15:41:57;;;;;;;8.13;7.20;;;;;;;;;;4967040;28;20492;-83
2021/07/19 15:44:23;;;;;;;8.07;7.18;;;;;;;;;;4961033;28;20275;-82
2021/07/19 15:46:48;;;;;;;9.38;6.47;;;;;;;;;;4960872;28;20018;-80
2021/07/19 15:49:13;;;;;;;7.47;6.80;;;;;;;;;;4965895;28;20073;-80
2021/07/19 15:51:38;;;;;;;8.63;6.45;;;;;;;;;;4967203;28;20043;-81
2021/07/19 15:54:04;;;;;;;7.80;6.87;;;;;;;;;;4965217;28;20076;-78
2021/07/19 15:56:29;;;;;;;7.18;6.30;;;;;;;;;;4964202;28;20274;-84
2021/07/19 15:58:55;;;;;;;7.80;7.10;;;;;;;;;;4965060;28;20102;-83
2021/07/19 16:01:20;;;;;;;10.77;6.68;;;;;;;;;;4963004;28;20126;-80
2021/07/19 16:03:45;;;;;;;7.47;6.88;;;;;;;;;;4965828;28;20031;-83
2021/07/19 16:06:11;;;;;;;11.77;8.05;;;;;;;;;;4963883;28;20029;-80
2021/07/19 16:08:36;;;;;;;11.32;7.53;;;;;;;;;;4962423;28;20539;-76
2021/07/19 16:11:02;;;;;;;7.80;7.13;;;;;;;;;;4968877;28;20057;-79
2021/07/19 16:13:27;;;;;;;8.68;7.57;;;;;;;;;;4964131;28;20042;-81
2021/07/19 16:15:52;;;;;;;11.80;8.38;;;;;;;;;;4957964;28;20027;-80
2021/07/19 16:18:18;;;;;;;9.60;8.73;;;;;;;;;;4948436;28;20105;-76
2021/07/19 16:20:43;;;;;;;12.25;8.07;;;;;;;;;;4965198;28;20274;-86
2021/07/19 16:23:09;;;;;;;9.02;7.50;;;;;;;;;;4950934;28;20447;-84
2021/07/19 16:25:34;;;;;;;8.18;7.55;;;;;;;;;;4947203;28;20086;-80
2021/07/19 16:27:59;;;;;;;8.00;7.40;;;;;;;;;;4960721;28;20579;-84
2021/07/19 16:30:24;;;;;;;8.00;7.30;;;;;;;;;;4965217;28;20333;-83
2021/07/19 16:32:50;;;;;;;11.87;7.93;;;;;;;;;;4963398;28;20797;-80
2021/07/19 16:35:15;;;;;;;11.73;7.57;;;;;;;;;;4961277;28;20317;-82
2021/07/19 16:37:40;;;;;;;11.10;7.70;;;;;;;;;;4963964;28;20031;-89
2021/07/19 16:40:08;;;;;;;10.65;9.07;;;;;;;;;;4963284;28;20023;-82
2021/07/19 16:42:33;;;;;;;13.95;9.65;;;;;;;;;;4956535;28;20058;-81
2021/07/19 16:44:58;;;;;;;11.90;10.50;;;;;;;;;;4954891;28;20069;-89
2021/07/19 16:47:24;;;;;;;14.50;10.83;;;;;;;;;;4945735;28;20128;-82
2021/07/19 16:49:49;;;;;;;15.25;10.63;;;;;;;;;;4961099;28;20340;-81
2021/07/19 16:52:14;;;;;;;11.43;10.52;;;;;;;;;;4947249;28;20027;-83
2021/07/19 16:54:39;;;;;;;12.13;10.73;;;;;;;;;;4966261;28;20054;-82
2021/07/19 16:57:05;;;;;;;12.67;11.40;;;;;;;;;;4963840;28;20270;-87
2021/07/19 16:59:30;;;;;;;14.90;12.23;;;;;;;;;;4963645;28;20313;-87
2021/07/19 17:01:55;;;;;;;12.85;11.63;;;;;;;;;;4963147;28;20299;-84
2021/07/19 17:04:21;;;;;;;13.48;12.45;;;;;;;;;;4948031;28;20019;-84
2021/07/19 17:06:46;;;;;;;15.25;13.57;;;;;;;;;;4962975;28;20657;-88
2021/07/19 17:09:12;;;;;;;15.20;13.88;;;;;;;;;;4963544;28;20014;-79
2021/07/19 17:11:37;;;;;;;16.38;14.95;;;;;;;;;;4962887;28;20039;-84
2021/07/19 17:14:03;;;;;;;15.93;14.52;;;;;;;;;;4944149;28;20477;-89
2021/07/19 17:16:28;;;;;;;14.80;13.55;;;;;;;;;;4947488;28;20055;-86
2021/07/19 17:18:53;;;;;;;16.10;14.63;;;;;;;;;;4965453;28;20051;-92
2021/07/19 17:21:19;;;;;;;21.57;18.63;;;;;;;;;;4963922;28;20027;-83
2021/07/19 17:23:44;;;;;;;15.90;14.30;;;;;;;;;;4961833;28;20273;-89
2021/07/19 17:26:10;;;;;;;18.27;16.38;;;;;;;;;;4951878;28;20814;-92
2021/07/19 17:28:35;;;;;;;20.45;18.42;;;;;;;;;;4964119;28;20023;-93
2021/07/19 17:31:00;;;;;;;21.97;19.43;;;;;;;;;;4956167;28;20015;-86
2021/07/19 17:33:26;;;;;;;32.55;27.33;;;;;;;;;;4963428;28;20294;-83
2021/07/19 17:35:51;;;;;;;29.90;23.92;;;;;;;;;;4961925;28;20113;-81
2021/07/19 17:38:24;;;;;;;35.25;25.25;;;;;;;;;;4962996;28;20038;-76
2021/07/19 17:40:49;;;;;;;35.15;25.98;;;;;;;;;;4961217;28;20397;-77
2021/07/19 17:43:14;;;;;;;32.78;22.88;;;;;;;;;;4960235;28;20026;-77
2021/07/19 17:45:40;;;;;;;28.87;23.53;;;;;;;;;;4945371;28;20153;-78
2021/07/19 17:48:06;;;;;;;27.48;23.30;;;;;;;;;;4964040;28;20274;-76
2021/07/19 17:50:31;;;;;;;22.30;19.23;;;;;;;;;;4963094;28;20062;-77
2021/07/19 17:52:56;;;;;;;19.42;15.85;;;;;;;;;;4963498;28;20113;-77
2021/07/19 17:55:26;;;;;;;26.58;18.85;;;;;;;;;;4963162;28;20130;-77
2021/07/19 17:57:52;;;;;;;13.57;12.27;;;;;;;;;;4963316;28;20403;-77
2021/07/19 18:00:17;;;;;;;12.52;11.52;;;;;;;;;;4964302;28;20527;-79
2021/07/19 18:02:42;;;;;;;13.02;11.45;;;;;;;;;;4962752;28;20062;-77
2021/07/19 18:05:08;;;;;;;11.52;10.63;;;;;;;;;;4963476;28;20388;-76
2021/07/19 18:07:33;;;;;;;13.05;12.05;;;;;;;;;;4961461;28;20030;-82
2021/07/19 18:09:59;;;;;;;13.30;12.20;;;;;;;;;;4960143;28;20082;-83
2021/07/19 18:12:24;;;;;;;14.35;13.13;;;;;;;;;;4870090;28;20135;-76
2021/07/19 18:14:49;;;;;;;14.02;12.73;;;;;;;;;;4969071;28;20369;-78
2021/07/19 18:17:15;;;;;;;18.50;16.80;;;;;;;;;;4963443;28;20058;-78
2021/07/19 18:19:42;;;;;;;15.50;14.15;;;;;;;;;;4962099;28;20989;-78
2021/07/19 18:24:46;;;;;;;15.30;13.70;;;;;;;;;;4962652;28;20050;-77
2021/07/19 18:32:39;;;;;;;14.52;13.43;;;;;;;;;;4960217;28;20116;-75
2021/07/19 18:35:05;;;;;;;18.25;16.50;;;;;;;;;;4963759;28;20501;-75
2021/07/19 18:37:30;;;;;;;18.48;16.58;;;;;;;;;;4959202;28;20022;-76
2021/07/19 18:39:55;;;;;;;20.92;18.73;;;;;;;;;;4963058;28;20027;-76
2021/07/19 18:42:21;;;;;;;19.20;17.48;;;;;;;;;;4960504;28;20101;-76
2021/07/19 18:44:46;;;;;;;24.15;21.30;;;;;;;;;;4964964;28;20058;-75
2021/07/19 18:47:12;;;;;;;19.80;17.75;;;;;;;;;;4942125;28;20074;-74
2021/07/19 18:49:37;;;;;;;17.65;16.17;;;;;;;;;;4963869;28;20054;-73
2021/07/19 18:52:03;;;;;;;22.08;19.83;;;;;;;;;;4980072;28;20094;-74
2021/07/19 18:54:28;;;;;;;24.10;21.70;;;;;;;;;;4966015;28;20149;-74
2021/07/19 21:46:15;;;;;;;23.73;21.50;;;;;;;19.43;100.00;94300.50;5005807;28;20395;-76
2021/07/19 21:48:40;;;;;;;23.40;21.33;;;;;;;19.52;100.00;94303.53;5004845;28;20050;-76
2021/07/19 21:51:06;;;;;;;26.85;24.25;;;;;;;19.45;100.00;94290.56;5003346;28;20471;-77
